Xi Ujimqin Qi, China
Current Conditions -  °F | °C
As of 8:30 PM on Wednesday 22 Oct 2014 (Local Time) from ZBAA Reporting Station
Clear Clear  
Wind Chill: 54°   Ceiling: Unl
Heat Index: 54°   Visibility: 4mi
Dew Point: 45°   Wind: 2mph
Humidity: 72%   Direction: NA
Pressure: 30.12"   Gusts: NA
Location:  44.58°N, 117.6°E
Report Text: ZBAA 221230Z VRB01MPS 6000 NSC 12/07 Q1020 NOSIG
Loading
Personal Weather Stations






























Interactive Weather Map
Tropical Storm Tracking
New forecast layout! Learn more

10-Day Weather Forecast

Advertisements
Track Severe Weather on mobile